createdAt,value
2018-10-16T00:00:17.161Z,9.83
2018-10-16T00:02:46.771Z,9.87
2018-10-16T00:05:17.225Z,9.92
2018-10-16T00:07:46.447Z,9.94
2018-10-16T00:10:21.169Z,9.91
2018-10-16T00:12:50.328Z,9.85
2018-10-16T00:15:19.925Z,9.75
2018-10-16T00:17:49.062Z,9.69
2018-10-16T00:20:18.527Z,9.64
2018-10-16T00:22:47.705Z,9.56
2018-10-16T00:25:18.208Z,9.48
2018-10-16T00:27:47.299Z,9.42
2018-10-16T00:30:16.789Z,9.37
2018-10-16T00:32:45.941Z,9.36
2018-10-16T00:35:15.347Z,9.33
2018-10-16T00:37:44.467Z,9.31
2018-10-16T00:40:13.601Z,9.29
2018-10-16T00:42:42.843Z,9.28
2018-10-16T00:45:12.516Z,9.29
2018-10-16T00:47:41.639Z,9.26
2018-10-16T00:50:11.099Z,9.24
2018-10-16T00:52:40.421Z,9.24
2018-10-16T00:55:10.650Z,9.23
2018-10-16T00:57:40.478Z,9.19
2018-10-16T01:00:11.250Z,9.16
2018-10-16T01:02:40.899Z,9.12
2018-10-16T01:05:11.519Z,9.06
2018-10-16T01:07:41.235Z,9.00
2018-10-16T01:10:11.635Z,8.99
2018-10-16T01:12:41.202Z,8.92
2018-10-16T01:15:11.555Z,8.94
2018-10-16T01:17:41.212Z,8.92
2018-10-16T01:20:13.488Z,8.89
2018-10-16T01:22:43.141Z,8.89
2018-10-16T01:25:13.262Z,8.88
2018-10-16T01:27:42.377Z,8.87
2018-10-16T01:30:11.889Z,8.86
2018-10-16T01:32:41.036Z,8.83
2018-10-16T01:35:11.715Z,8.82
2018-10-16T01:37:41.181Z,8.82
2018-10-16T01:40:11.443Z,8.81
2018-10-16T01:42:40.596Z,8.79
2018-10-16T01:45:10.839Z,8.77
2018-10-16T01:47:39.967Z,8.79
2018-10-16T01:50:09.509Z,8.80
2018-10-16T01:52:38.636Z,8.75
2018-10-16T01:55:08.171Z,8.75
2018-10-16T01:57:37.405Z,8.71
2018-10-16T02:00:07.501Z,8.66
2018-10-16T02:02:36.880Z,8.61
2018-10-16T02:05:07.703Z,8.59
2018-10-16T02:07:36.949Z,8.56
2018-10-16T02:10:06.881Z,8.51
2018-10-16T02:12:37.166Z,8.49
2018-10-16T02:15:08.120Z,8.47
2018-10-16T02:17:37.548Z,8.49
2018-10-16T02:20:06.902Z,8.49
2018-10-16T02:22:37.412Z,8.48
2018-10-16T02:25:06.832Z,8.47
2018-10-16T02:27:36.974Z,8.46
2018-10-16T02:30:06.979Z,8.42
2018-10-16T02:32:37.032Z,8.40
2018-10-16T02:35:08.176Z,8.40
2018-10-16T02:37:37.408Z,8.38
2018-10-16T02:40:08.321Z,8.36
2018-10-16T02:42:37.824Z,8.34
2018-10-16T02:45:08.292Z,8.34
2018-10-16T02:47:37.444Z,8.31
2018-10-16T02:50:06.755Z,8.29
2018-10-16T02:52:36.858Z,8.29
2018-10-16T02:55:08.594Z,8.29
2018-10-16T02:57:37.750Z,8.26
2018-10-16T03:00:06.930Z,8.23
2018-10-16T03:02:36.861Z,8.20
2018-10-16T03:05:07.087Z,8.14
2018-10-16T03:07:36.908Z,8.12
2018-10-16T03:10:06.981Z,8.09
2018-10-16T03:12:36.998Z,8.09
2018-10-16T03:15:10.439Z,8.05
2018-10-16T03:17:39.640Z,8.06
2018-10-16T03:20:09.756Z,8.04
2018-10-16T03:22:39.444Z,8.03
2018-10-16T03:25:10.794Z,8.01
2018-10-16T03:27:40.440Z,7.98
2018-10-16T03:30:11.506Z,7.97
2018-10-16T03:32:41.038Z,7.95
2018-10-16T03:35:11.714Z,7.95
2018-10-16T03:37:41.843Z,7.93
2018-10-16T03:40:12.072Z,7.91
2018-10-16T03:42:42.166Z,7.86
2018-10-16T03:45:12.699Z,7.69
2018-10-16T03:47:41.807Z,7.70
2018-10-16T03:50:11.303Z,7.73
2018-10-16T03:52:40.408Z,7.72
2018-10-16T03:55:09.876Z,7.70
2018-10-16T03:57:39.026Z,7.71
2018-10-16T04:00:09.228Z,7.69
2018-10-16T04:02:38.634Z,7.66
2018-10-16T04:05:08.089Z,7.65
2018-10-16T04:07:37.894Z,7.65
2018-10-16T04:10:08.374Z,7.64
2018-10-16T04:12:37.686Z,7.61
2018-10-16T04:15:09.050Z,7.57
2018-10-16T04:17:38.534Z,7.52
2018-10-16T04:20:08.193Z,7.48
2018-10-16T04:22:38.032Z,7.48
2018-10-16T04:25:08.505Z,7.49
2018-10-16T04:27:37.894Z,7.50
2018-10-16T04:30:08.395Z,7.44
2018-10-16T04:32:37.771Z,7.44
2018-10-16T04:35:12.170Z,7.41
2018-10-16T04:37:41.461Z,7.38
2018-10-16T04:40:10.940Z,7.38
2018-10-16T04:42:40.397Z,7.30
2018-10-16T04:45:10.827Z,7.23
2018-10-16T04:47:40.654Z,7.20
2018-10-16T04:50:10.999Z,7.21
2018-10-16T04:52:40.401Z,7.22
2018-10-16T04:55:10.028Z,7.23
2018-10-16T04:57:39.097Z,7.24
2018-10-16T05:00:09.437Z,7.24
2018-10-16T05:02:39.910Z,7.23
2018-10-16T05:05:13.465Z,7.22
2018-10-16T05:07:42.589Z,7.21
2018-10-16T05:10:12.379Z,7.20
2018-10-16T05:12:41.535Z,7.19
2018-10-16T05:15:15.644Z,7.17
2018-10-16T05:17:44.776Z,7.06
2018-10-16T05:20:13.957Z,6.88
2018-10-16T05:22:43.099Z,6.82
2018-10-16T05:25:12.264Z,6.87
2018-10-16T05:27:41.461Z,6.89
2018-10-16T05:30:10.979Z,6.94
2018-10-16T05:32:40.216Z,6.93
2018-10-16T05:35:10.148Z,6.93
2018-10-16T05:37:40.201Z,6.95
2018-10-16T05:40:10.251Z,6.92
2018-10-16T05:42:39.949Z,6.89
2018-10-16T05:45:11.002Z,6.91
2018-10-16T05:47:41.145Z,6.90
2018-10-16T05:50:10.989Z,6.90
2018-10-16T05:52:40.109Z,6.92
2018-10-16T05:55:10.018Z,6.91
2018-10-16T05:57:39.170Z,6.81
2018-10-16T06:00:19.803Z,6.63
2018-10-16T06:02:51.021Z,6.62
2018-10-16T06:05:20.109Z,6.59
2018-10-16T06:07:49.224Z,6.63
2018-10-16T06:10:18.709Z,6.68
2018-10-16T06:12:47.833Z,6.65
2018-10-16T06:15:17.378Z,6.71
2018-10-16T06:17:46.543Z,6.77
2018-10-16T06:20:15.673Z,6.85
2018-10-16T06:22:45.322Z,6.93
2018-10-16T06:25:14.456Z,6.98
2018-10-16T06:27:44.077Z,7.02
2018-10-16T06:30:13.722Z,7.10
2018-10-16T06:32:42.826Z,7.15
2018-10-16T06:35:12.337Z,7.20
2018-10-16T06:37:41.539Z,7.29
2018-10-16T06:40:11.352Z,7.36
2018-10-16T06:42:40.542Z,7.38
2018-10-16T06:45:10.685Z,7.37
2018-10-16T06:47:39.799Z,7.37
2018-10-16T06:50:10.622Z,7.45
2018-10-16T06:52:39.920Z,7.52
2018-10-16T06:55:09.779Z,7.59
2018-10-16T06:57:39.324Z,7.65
2018-10-16T07:00:09.864Z,7.76
2018-10-16T07:02:39.346Z,7.83
2018-10-16T07:05:09.880Z,7.89
2018-10-16T07:07:39.547Z,8.00
2018-10-16T07:10:10.387Z,8.07
2018-10-16T07:12:39.594Z,8.09
2018-10-16T07:15:10.188Z,8.16
2018-10-16T07:17:39.496Z,8.21
2018-10-16T07:20:10.314Z,8.24
2018-10-16T07:22:40.055Z,8.36
2018-10-16T07:25:10.504Z,8.44
2018-10-16T07:27:40.110Z,8.52
2018-10-16T07:30:12.484Z,8.61
2018-10-16T07:32:41.671Z,8.69
2018-10-16T07:35:11.312Z,8.79
2018-10-16T07:37:40.940Z,8.89
2018-10-16T07:40:11.301Z,8.93
2018-10-16T07:42:40.900Z,9.01
2018-10-16T07:48:10.261Z,9.18
2018-10-16T07:50:40.003Z,9.27
2018-10-16T07:53:10.348Z,9.35
2018-10-16T07:55:40.410Z,9.43
2018-10-16T07:58:10.335Z,9.55
2018-10-16T08:00:40.096Z,9.63
2018-10-16T08:03:10.449Z,9.73
2018-10-16T08:05:40.834Z,9.85
2018-10-16T08:08:10.989Z,9.97
2018-10-16T08:10:40.312Z,10.08
2018-10-16T08:13:10.628Z,10.19
2018-10-16T08:15:40.649Z,10.31
2018-10-16T08:18:10.559Z,10.40
2018-10-16T08:20:40.230Z,10.50
2018-10-16T08:23:10.607Z,10.59
2018-10-16T08:25:40.687Z,10.70
2018-10-16T08:28:10.672Z,10.85
2018-10-16T08:30:40.485Z,10.94
2018-10-16T08:33:10.641Z,11.05
2018-10-16T08:35:40.887Z,11.18
2018-10-16T08:38:24.632Z,11.32
2018-10-16T08:40:53.866Z,11.50
2018-10-16T08:43:37.726Z,11.65
2018-10-16T08:46:17.982Z,11.77
2018-10-16T08:48:58.883Z,11.90
2018-10-16T08:51:54.800Z,12.08
2018-10-16T08:54:24.252Z,12.20
2018-10-16T08:56:53.379Z,12.26
2018-10-16T08:59:22.514Z,12.36
2018-10-16T09:01:51.700Z,12.46
2018-10-16T09:04:21.230Z,12.60
2018-10-16T09:06:50.400Z,12.73
2018-10-16T09:09:19.939Z,12.81
2018-10-16T09:11:49.604Z,12.93
2018-10-16T09:14:19.218Z,13.05
2018-10-16T09:16:48.320Z,13.18
2018-10-16T09:19:17.862Z,13.33
2018-10-16T09:21:47.061Z,13.50
2018-10-16T09:24:16.186Z,13.65
2018-10-16T09:26:45.302Z,13.72
2018-10-16T09:29:14.827Z,13.77
2018-10-16T09:31:43.951Z,13.82
2018-10-16T09:34:14.035Z,13.91
2018-10-16T09:36:43.168Z,13.95
2018-10-16T09:39:12.631Z,14.07
2018-10-16T09:41:41.824Z,14.15
2018-10-16T09:44:11.521Z,14.26
2018-10-16T09:46:41.531Z,14.34
2018-10-16T09:49:11.580Z,14.45
2018-10-16T09:51:41.512Z,14.49
2018-10-16T09:54:11.547Z,14.55
2018-10-16T09:56:41.655Z,14.67
2018-10-16T09:59:11.565Z,14.75
2018-10-16T10:01:43.826Z,14.81
2018-10-16T10:04:13.476Z,14.91
2018-10-16T10:06:42.660Z,14.98
2018-10-16T10:09:13.200Z,15.06
2018-10-16T10:11:42.375Z,15.10
2018-10-16T10:14:11.873Z,15.16
2018-10-16T10:16:42.016Z,15.27
2018-10-16T10:19:11.843Z,15.36
2018-10-16T10:21:41.605Z,15.48
2018-10-16T10:24:11.675Z,15.63
2018-10-16T10:42:11.202Z,16.25
2018-10-16T10:44:40.259Z,16.36
2018-10-16T10:47:09.416Z,16.45
2018-10-16T10:49:38.879Z,16.51
2018-10-16T10:52:08.025Z,16.61
2018-10-16T10:54:37.160Z,16.70
2018-10-16T10:57:06.871Z,16.74
2018-10-16T10:59:36.125Z,16.78
2018-10-16T11:02:05.647Z,16.79
2018-10-16T11:04:35.207Z,16.85
2018-10-16T11:07:04.355Z,16.93
2018-10-16T11:09:33.846Z,17.08
2018-10-16T11:12:03.017Z,17.19
2018-10-16T11:14:32.109Z,17.26
2018-10-16T11:17:01.303Z,17.32
2018-10-16T11:19:30.861Z,17.41
2018-10-16T11:21:59.947Z,17.47
2018-10-16T11:24:29.478Z,17.56
2018-10-16T11:26:58.725Z,17.70
2018-10-16T11:29:28.243Z,17.76
2018-10-16T11:31:57.422Z,17.89
2018-10-16T11:34:26.952Z,17.95
2018-10-16T11:36:56.099Z,17.93
2018-10-16T11:39:25.525Z,17.93
2018-10-16T11:41:54.610Z,17.95
2018-10-16T11:44:23.791Z,18.01
2018-10-16T11:46:52.880Z,18.05
2018-10-16T11:49:22.406Z,18.09
2018-10-16T11:51:51.523Z,18.16
2018-10-16T11:54:20.976Z,18.25
2018-10-16T11:56:50.144Z,18.30
2018-10-16T11:59:19.850Z,18.28
2018-10-16T12:01:48.817Z,18.30
2018-10-16T12:04:18.387Z,18.34
2018-10-16T12:06:47.507Z,18.43
2018-10-16T12:09:17.033Z,18.48
2018-10-16T12:11:46.277Z,18.51
2018-10-16T12:14:15.709Z,18.57
2018-10-16T12:16:56.889Z,18.62
2018-10-16T12:19:30.680Z,18.63
2018-10-16T12:22:00.364Z,18.69
2018-10-16T12:24:30.501Z,18.73
2018-10-16T12:26:59.982Z,18.84
2018-10-16T12:29:29.841Z,18.90
2018-10-16T12:31:59.513Z,18.94
2018-10-16T12:34:28.628Z,18.91
2018-10-16T12:36:57.816Z,18.90
2018-10-16T12:39:26.909Z,18.94
2018-10-16T12:41:56.083Z,19.02
2018-10-16T12:44:25.327Z,19.11
2018-10-16T12:46:54.510Z,19.14
2018-10-16T12:49:24.034Z,19.15
2018-10-16T12:51:53.200Z,19.17
2018-10-16T12:54:22.755Z,19.24
2018-10-16T12:56:52.047Z,19.28
2018-10-16T12:59:21.535Z,19.32
2018-10-16T13:01:50.660Z,19.40
2018-10-16T13:04:20.174Z,19.42
2018-10-16T13:06:49.413Z,19.46
2018-10-16T13:09:18.521Z,19.49
2018-10-16T13:11:47.652Z,19.49
2018-10-16T13:14:17.302Z,19.54
2018-10-16T13:16:46.497Z,19.57
2018-10-16T13:19:15.869Z,19.55
2018-10-16T13:21:44.974Z,19.60
2018-10-16T13:24:14.509Z,19.63
2018-10-16T13:26:44.210Z,19.61
2018-10-16T13:29:14.139Z,19.61
2018-10-16T13:31:44.138Z,19.66
2018-10-16T13:34:14.195Z,19.68
2018-10-16T13:52:10.135Z,19.71
2018-10-16T13:54:39.321Z,19.77
2018-10-16T13:57:08.424Z,19.76
2018-10-16T13:59:37.552Z,19.79
2018-10-16T14:02:06.806Z,19.77
2018-10-16T14:04:36.197Z,19.81
2018-10-16T14:07:05.542Z,19.82
2018-10-16T14:09:35.150Z,19.85
2018-10-16T14:12:04.305Z,19.89
2018-10-16T14:14:33.813Z,19.95
2018-10-16T14:17:02.933Z,19.99
2018-10-16T14:19:32.407Z,20.01
2018-10-16T14:22:01.779Z,20.06
2018-10-16T14:24:31.203Z,20.11
2018-10-16T14:27:00.371Z,20.18
2018-10-16T14:29:29.922Z,20.25
2018-10-16T14:31:59.158Z,20.29
2018-10-16T14:34:28.358Z,20.37
2018-10-16T14:36:57.436Z,20.46
2018-10-16T14:39:26.578Z,20.73
2018-10-16T14:41:55.723Z,21.10
2018-10-16T14:44:24.900Z,21.42
2018-10-16T14:46:54.009Z,21.71
2018-10-16T14:49:23.185Z,21.95
2018-10-16T14:51:52.319Z,22.12
2018-10-16T14:54:21.419Z,22.23
2018-10-16T14:56:50.595Z,22.29
2018-10-16T14:59:19.771Z,22.28
2018-10-16T15:01:48.933Z,22.23
2018-10-16T15:04:18.763Z,22.18
2018-10-16T15:06:47.872Z,22.09
2018-10-16T15:09:17.010Z,21.88
2018-10-16T15:11:46.162Z,21.68
2018-10-16T15:14:15.332Z,21.47
2018-10-16T15:16:44.773Z,21.28
2018-10-16T15:19:14.988Z,21.08
2018-10-16T15:21:44.809Z,20.90
2018-10-16T15:24:15.025Z,20.74
2018-10-16T15:26:44.822Z,20.58
2018-10-16T15:29:15.082Z,20.42
2018-10-16T15:31:45.036Z,20.25
2018-10-16T15:34:15.126Z,20.09
2018-10-16T15:36:45.163Z,19.95
2018-10-16T15:39:15.339Z,19.82
2018-10-16T15:41:45.373Z,19.70
2018-10-16T15:44:15.411Z,19.57
2018-10-16T15:46:45.386Z,19.45
2018-10-16T15:49:15.373Z,19.37
2018-10-16T15:51:45.202Z,19.23
2018-10-16T15:54:15.455Z,19.11
2018-10-16T15:56:45.590Z,19.00
2018-10-16T15:59:15.254Z,18.88
2018-10-16T16:01:45.260Z,18.77
2018-10-16T16:04:15.565Z,18.67
2018-10-16T16:06:45.298Z,18.57
2018-10-16T16:09:15.476Z,18.45
2018-10-16T16:11:45.378Z,18.37
2018-10-16T16:14:15.652Z,18.30
2018-10-16T16:16:45.413Z,18.20
2018-10-16T16:19:15.704Z,18.09
2018-10-16T16:21:45.410Z,17.99
2018-10-16T16:24:15.776Z,17.91
2018-10-16T16:26:45.479Z,17.80
2018-10-16T16:29:15.700Z,17.70
2018-10-16T16:31:45.609Z,17.64
2018-10-16T16:34:15.903Z,17.56
2018-10-16T16:36:45.654Z,17.39
2018-10-16T16:39:15.852Z,17.34
2018-10-16T16:41:45.582Z,17.25
2018-10-16T16:44:15.987Z,17.16
2018-10-16T16:46:45.656Z,17.10
2018-10-16T16:49:16.176Z,17.00
2018-10-16T16:51:45.856Z,16.92
2018-10-16T16:54:16.111Z,16.81
2018-10-16T16:56:45.838Z,16.69
2018-10-16T16:59:16.016Z,16.62
2018-10-16T17:01:45.887Z,16.53
2018-10-16T17:04:16.099Z,16.45
2018-10-16T17:06:46.157Z,16.39
2018-10-16T17:09:18.074Z,16.34
2018-10-16T17:11:47.393Z,16.27
2018-10-16T17:14:16.537Z,16.22
2018-10-16T17:29:50.110Z,15.86
2018-10-16T17:32:19.318Z,15.82
2018-10-16T17:34:48.449Z,15.77
2018-10-16T17:37:17.951Z,15.72
2018-10-16T17:39:47.223Z,15.65
2018-10-16T17:42:16.574Z,15.59
2018-10-16T17:44:46.357Z,15.51
2018-10-16T17:47:16.876Z,15.44
2018-10-16T17:49:46.537Z,15.37
2018-10-16T17:52:16.864Z,15.29
2018-10-16T17:54:46.708Z,15.21
2018-10-16T17:57:16.952Z,15.12
2018-10-16T17:59:46.822Z,15.05
2018-10-16T18:02:17.035Z,14.99
2018-10-16T18:04:47.156Z,14.93
2018-10-16T18:07:17.299Z,14.84
2018-10-16T18:09:46.883Z,14.80
2018-10-16T18:12:17.118Z,14.76
2018-10-16T18:14:46.865Z,14.72
2018-10-16T18:17:17.292Z,14.69
2018-10-16T18:19:47.027Z,14.62
2018-10-16T18:22:17.956Z,14.56
2018-10-16T18:24:47.702Z,14.49
2018-10-16T18:27:17.474Z,14.45
2018-10-16T18:29:47.230Z,14.39
2018-10-16T18:32:18.778Z,14.34
2018-10-16T18:34:48.364Z,14.26
2018-10-16T18:37:17.896Z,14.18
2018-10-16T18:39:47.618Z,14.12
2018-10-16T18:42:18.089Z,14.06
2018-10-16T18:44:47.594Z,14.02
2018-10-16T18:47:17.988Z,13.97
2018-10-16T18:49:47.516Z,13.91
2018-10-16T18:52:18.855Z,13.86
2018-10-16T18:54:48.416Z,13.79
2018-10-16T18:57:18.029Z,13.74
2018-10-16T18:59:48.089Z,13.70
2018-10-16T19:02:18.490Z,13.67
2018-10-16T19:04:48.154Z,13.62
2018-10-16T19:07:18.147Z,13.58
2018-10-16T19:09:48.387Z,13.53
2018-10-16T19:12:18.018Z,13.48
2018-10-16T19:14:47.907Z,13.42
2018-10-16T19:17:19.024Z,13.36
2018-10-16T19:19:48.544Z,13.30
2018-10-16T19:22:18.177Z,13.24
2018-10-16T19:24:48.068Z,13.17
2018-10-16T19:27:18.434Z,13.10
2018-10-16T19:29:48.040Z,13.03
2018-10-16T19:32:18.536Z,12.98
2018-10-16T19:34:48.750Z,12.93
2018-10-16T19:37:18.762Z,12.89
2018-10-16T19:39:48.530Z,12.84
2018-10-16T19:42:19.704Z,12.82
2018-10-16T19:44:49.684Z,12.79
2018-10-16T19:47:19.215Z,12.75
2018-10-16T19:49:49.025Z,12.72
2018-10-16T19:52:18.688Z,12.68
2018-10-16T19:54:48.530Z,12.65
2018-10-16T19:57:18.537Z,12.63
2018-10-16T19:59:48.379Z,12.58
2018-10-16T20:02:20.079Z,12.54
2018-10-16T20:04:49.647Z,12.52
2018-10-16T20:07:19.080Z,12.50
2018-10-16T20:09:48.628Z,12.46
2018-10-16T20:12:18.791Z,12.41
2018-10-16T20:14:48.399Z,12.35
2018-10-16T20:17:18.723Z,12.28
2018-10-16T20:19:48.330Z,12.22
2018-10-16T20:22:17.962Z,12.16
2018-10-16T20:24:47.404Z,12.12
2018-10-16T20:27:17.212Z,12.02
2018-10-16T20:29:46.425Z,11.95
2018-10-16T20:32:15.889Z,11.90
2018-10-16T20:34:45.065Z,11.86
2018-10-16T20:37:15.356Z,11.87
2018-10-16T20:39:44.554Z,11.87
2018-10-16T20:42:14.136Z,11.86
2018-10-16T20:44:43.424Z,11.85
2018-10-16T20:47:13.534Z,11.84
2018-10-16T20:49:42.785Z,11.85
2018-10-16T20:52:12.051Z,11.83
2018-10-16T20:54:41.971Z,11.81
2018-10-16T20:57:11.488Z,11.80
2018-10-16T20:59:42.345Z,11.78
2018-10-16T21:02:11.785Z,11.74
2018-10-16T21:04:41.208Z,11.72
2018-10-16T21:07:10.323Z,11.67
2018-10-16T21:09:39.529Z,11.62
2018-10-16T21:12:09.062Z,11.58
2018-10-16T21:14:38.305Z,11.52
2018-10-16T21:17:07.520Z,11.43
2018-10-16T21:19:38.288Z,11.38
2018-10-16T21:22:07.392Z,11.36
2018-10-16T21:24:51.417Z,11.35
2018-10-16T21:27:20.811Z,11.33
2018-10-16T21:29:51.276Z,11.30
2018-10-16T21:32:21.640Z,11.27
2018-10-16T21:34:50.951Z,11.19
2018-10-16T21:37:20.232Z,11.13
2018-10-16T21:39:49.802Z,11.09
2018-10-16T22:08:24.932Z,10.88
2018-10-16T22:10:54.577Z,10.82
2018-10-16T22:13:24.301Z,10.73
2018-10-16T22:15:53.526Z,10.65
2018-10-16T22:20:59.987Z,10.61
2018-10-16T22:23:29.153Z,10.61
2018-10-16T22:25:58.336Z,10.60
2018-10-16T22:28:27.801Z,10.55
2018-10-16T22:30:57.043Z,10.51
2018-10-16T22:33:26.118Z,10.49
2018-10-16T22:35:55.293Z,10.45
2018-10-16T22:38:24.571Z,10.44
2018-10-16T22:40:53.976Z,10.43
2018-10-16T22:43:23.102Z,10.44
2018-10-16T22:45:53.236Z,10.41
2018-10-16T22:48:22.385Z,10.34
2018-10-16T22:50:52.033Z,10.30
2018-10-16T22:53:22.613Z,10.26
2018-10-16T22:55:51.746Z,10.24
2018-10-16T22:58:22.572Z,10.20
2018-10-16T23:00:51.740Z,10.15
2018-10-16T23:03:20.892Z,10.09
2018-10-16T23:05:50.564Z,10.07
2018-10-16T23:23:49.851Z,9.96
2018-10-16T23:26:19.330Z,9.93
2018-10-16T23:28:49.169Z,9.93
2018-10-16T23:31:18.642Z,9.93
2018-10-16T23:33:48.675Z,9.93
2018-10-16T23:36:18.591Z,9.92
2018-10-16T23:38:48.695Z,9.93
2018-10-16T23:41:19.415Z,9.95
2018-10-16T23:43:48.617Z,9.97
2018-10-16T23:46:18.916Z,9.94
2018-10-16T23:48:48.063Z,9.96
2018-10-16T23:51:17.602Z,9.97
2018-10-16T23:53:46.809Z,9.99
2018-10-16T23:56:16.166Z,10.03
2018-10-16T23:58:45.226Z,10.04
